To NAV CANADA Home Page Login to a new session Search on AWWS site Feedback and Comments Disclaimer Vers la page française équivalente Tips FAQ What's new on the site To the Forecasts and Observations / NOTAM section To "File a Flight Plan" website Publications and other links Update of the User's profile FIC Telephone Numbers My Weather Data Folder Route Weather Data Regional Weather Data Local Weather Data To the Forecasts and Observations / NOTAM section
Request Generated 05/30/2016 at 06:42:24 UTC . Weather information available at that time is displayed.

METAR/TAF

KINGSTON/ON    

LWIS CYGK 300600Z AUTO 25006KT 18/16 A2990=
LWIS CYGK 300500Z AUTO 23007KT 210V280 18/15 A2993=
LWIS CYGK 300400Z AUTO 20007KT 18/14 A2995=

*** REMARK        : Forecast period has ended; this was the last TAF issued
*** REMARQUE : La période de prévision est échue; ceci était le dernier TAF qui a été émis
TAF CYGK 291938Z 2920/3003 17012KT P6SM FEW040 SCT120
BECMG 3000/3002 18005KT
RMK NXT FCST WILL BE ISSUED AT 301145Z=
Your time UTC time
Weather data provided by Environment Canada and NAV CANADA